Hovedside
METAR-TAF:

METAR-TAF

Lufthavner :

Vardø, Norge

Vardø lufthavn

breddegrad: 70-21N, lengdegrad: 031-03E, høyde over havet: 12 m

Gjeldene værobservasjon

Denne rapporten ble laget for 6 timer og 7 minutter siden, klokken 15:50 UTC
Vind 9 kt fra Sørøst
Temperatur 9°C
Luftfuktighet 93%
Trykk 1016 hPa
Sikt 10 km eller mer
Få skyer i en høyde av 4100 ft
Brutte skyer i en høyde av 8800 ft
lett regn

METAR: ENSS 181550Z 14009KT 9999 -RA FEW041 BKN088 09/08 Q1016 RMK WIND 500FT 12012KT

Tid: 23:57 (21:57 UTC)


TAF: fraværende

Værobservasjoner og værvarsel for over 4000 flyplasser (METAR- og TAF-rapporter).

Tilgjengelige stasjoner er representert av de røde og gule prikkene på kartet.

Hold musepekeren over prikken for å se navnet på stasjonen.

Klikk så for å se værobservasjoner og -varsler.

For å forandre kartet kan du klikke på den grønne knappen med svart kryss for å zoome inn, på den grønne knappen med strek for å zoome ut, eller på de grønne pilene for å se tilstøtende kart.


METAR-TAF: